createdAt,value
2019-01-30T00:02:20.079Z,8.07
2019-01-30T00:04:49.295Z,5.87
2019-01-30T00:07:18.528Z,6.23
2019-01-30T00:09:48.040Z,8.87
2019-01-30T00:12:17.166Z,5.67
2019-01-30T00:14:46.141Z,6.20
2019-01-30T00:17:15.488Z,6.73
2019-01-30T00:19:44.471Z,5.37
2019-01-30T00:22:13.791Z,6.70
2019-01-30T00:24:42.843Z,6.00
2019-01-30T00:27:11.943Z,7.03
2019-01-30T00:29:40.979Z,5.33
2019-01-30T00:32:09.814Z,5.67
2019-01-30T00:34:38.894Z,6.23
2019-01-30T00:37:08.179Z,5.73
2019-01-30T00:39:37.266Z,5.60
2019-01-30T00:42:06.245Z,6.53
2019-01-30T00:44:35.153Z,4.70
2019-01-30T00:47:04.366Z,6.50
2019-01-30T00:49:33.307Z,5.23
2019-01-30T00:52:02.298Z,5.40
2019-01-30T00:54:32.207Z,5.20
2019-01-30T00:57:01.503Z,5.23
2019-01-30T00:59:30.470Z,6.20
2019-01-30T01:01:59.473Z,5.93
2019-01-30T01:04:28.373Z,5.80
2019-01-30T01:06:57.324Z,5.40
2019-01-30T01:09:26.191Z,5.73
2019-01-30T01:11:55.062Z,5.83
2019-01-30T01:14:23.974Z,5.73
2019-01-30T01:16:52.945Z,5.23
2019-01-30T01:19:21.818Z,6.83
2019-01-30T01:21:50.769Z,6.43
2019-01-30T01:24:19.814Z,5.40
2019-01-30T01:26:48.754Z,5.37
2019-01-30T01:29:17.607Z,6.00
2019-01-30T01:31:46.542Z,4.80
2019-01-30T01:34:15.543Z,6.17
2019-01-30T01:36:44.529Z,6.40
2019-01-30T01:39:13.419Z,5.23
2019-01-30T01:41:42.357Z,5.73
2019-01-30T01:44:11.290Z,6.33
2019-01-30T01:46:40.232Z,6.33
2019-01-30T01:49:09.090Z,4.77
2019-01-30T01:51:37.967Z,4.77
2019-01-30T01:54:06.853Z,6.07
2019-01-30T01:56:35.818Z,5.77
2019-01-30T01:59:04.859Z,5.77
2019-01-30T02:01:33.800Z,4.97
2019-01-30T02:04:02.744Z,6.03
2019-01-30T02:06:31.693Z,5.37
2019-01-30T02:09:00.617Z,5.53
2019-01-30T02:11:29.509Z,6.07
2019-01-30T02:13:58.374Z,5.47
2019-01-30T02:16:27.349Z,4.90
2019-01-30T02:18:56.240Z,4.30
2019-01-30T02:21:25.241Z,5.40
2019-01-30T02:23:54.270Z,6.57
2019-01-30T02:26:23.198Z,5.17
2019-01-30T02:28:52.098Z,6.17
2019-01-30T02:31:21.166Z,5.20
2019-01-30T02:33:50.038Z,4.77
2019-01-30T02:36:19.034Z,5.03
2019-01-30T02:38:47.938Z,6.10
2019-01-30T02:41:16.806Z,6.10
2019-01-30T02:43:45.679Z,5.70
2019-01-30T02:46:14.551Z,6.20
2019-01-30T02:48:43.423Z,5.10
2019-01-30T02:51:12.355Z,4.63
2019-01-30T02:53:41.278Z,4.97
2019-01-30T02:56:10.261Z,6.60
2019-01-30T02:58:39.238Z,5.23
2019-01-30T03:01:08.351Z,4.97
2019-01-30T03:03:37.214Z,5.73
2019-01-30T03:06:06.225Z,5.00
2019-01-30T03:08:35.262Z,5.27
2019-01-30T03:11:04.280Z,5.23
2019-01-30T03:13:33.169Z,5.67
2019-01-30T03:16:02.090Z,4.47
2019-01-30T03:18:31.071Z,5.20
2019-01-30T03:20:59.990Z,5.47
2019-01-30T03:23:28.949Z,6.20
2019-01-30T03:25:57.854Z,5.03
2019-01-30T03:28:26.718Z,5.43
2019-01-30T03:30:55.662Z,5.33
2019-01-30T03:33:24.621Z,4.50
2019-01-30T03:35:53.545Z,5.33
2019-01-30T03:38:22.417Z,5.83
2019-01-30T03:40:51.355Z,6.70
2019-01-30T03:43:20.402Z,5.17
2019-01-30T03:45:49.318Z,4.87
2019-01-30T03:48:18.259Z,4.13
2019-01-30T03:50:47.467Z,5.27
2019-01-30T03:53:16.493Z,4.93
2019-01-30T03:55:45.591Z,4.87
2019-01-30T03:58:14.469Z,5.07
2019-01-30T04:00:43.394Z,4.93
2019-01-30T04:03:12.315Z,4.77
2019-01-30T04:05:41.273Z,4.63
2019-01-30T04:08:10.295Z,4.53
2019-01-30T04:10:39.192Z,5.47
2019-01-30T04:13:08.125Z,4.93
2019-01-30T04:15:37.076Z,4.33
2019-01-30T04:18:06.129Z,4.20
2019-01-30T04:20:35.132Z,6.67
2019-01-30T04:23:04.314Z,4.80
2019-01-30T04:25:33.257Z,4.90
2019-01-30T04:28:02.101Z,4.03
2019-01-30T04:30:31.117Z,5.03
2019-01-30T04:33:00.058Z,3.53
2019-01-30T04:35:29.029Z,4.93
2019-01-30T04:37:57.943Z,5.13
2019-01-30T04:40:26.897Z,4.57
2019-01-30T04:42:55.869Z,4.73
2019-01-30T04:45:25.410Z,5.07
2019-01-30T04:47:54.472Z,4.13
2019-01-30T04:50:23.497Z,4.33
2019-01-30T04:52:52.518Z,4.60
2019-01-30T04:55:21.638Z,4.27
2019-01-30T04:57:50.969Z,5.57
2019-01-30T05:00:22.170Z,4.17
2019-01-30T05:02:51.369Z,4.30
2019-01-30T05:05:20.735Z,4.43
2019-01-30T05:07:49.836Z,4.10
2019-01-30T05:10:19.030Z,4.13
2019-01-30T05:12:48.047Z,4.53
2019-01-30T05:15:29.505Z,4.63
2019-01-30T05:17:59.346Z,4.97
2019-01-30T05:20:28.310Z,5.43
2019-01-30T05:23:00.342Z,4.30
2019-01-30T05:25:29.265Z,5.37
2019-01-30T05:27:58.802Z,4.30
2019-01-30T05:30:29.988Z,5.40
2019-01-30T05:32:58.992Z,3.90
2019-01-30T05:35:28.190Z,4.20
2019-01-30T05:38:00.628Z,6.40
2019-01-30T05:40:33.176Z,5.23
2019-01-30T05:43:02.194Z,5.97
2019-01-30T05:45:31.176Z,4.57
2019-01-30T05:48:00.097Z,4.60
2019-01-30T05:50:29.413Z,5.13
2019-01-30T05:52:58.304Z,6.77
2019-01-30T05:55:27.271Z,4.97
2019-01-30T05:57:56.316Z,4.93
2019-01-30T06:00:43.390Z,5.03
2019-01-30T06:03:12.371Z,6.03
2019-01-30T06:05:41.506Z,4.13
2019-01-30T06:08:10.514Z,4.87
2019-01-30T06:10:39.468Z,5.07
2019-01-30T06:13:08.465Z,5.33
2019-01-30T06:15:37.370Z,4.67
2019-01-30T06:18:06.386Z,4.80
2019-01-30T06:20:35.409Z,4.67
2019-01-30T06:23:04.644Z,5.07
2019-01-30T06:25:33.619Z,3.77
2019-01-30T06:28:02.495Z,5.03
2019-01-30T06:30:31.434Z,4.93
2019-01-30T06:33:00.305Z,3.70
2019-01-30T06:35:29.385Z,4.40
2019-01-30T06:37:58.332Z,4.87
2019-01-30T06:40:29.950Z,5.23
2019-01-30T06:42:59.263Z,4.97
2019-01-30T06:45:28.522Z,4.97
2019-01-30T06:47:57.560Z,4.33
2019-01-30T06:50:26.593Z,4.30
2019-01-30T06:52:55.470Z,4.40
2019-01-30T06:55:24.426Z,5.20
2019-01-30T06:57:53.390Z,4.27
2019-01-30T07:00:24.709Z,4.60
2019-01-30T07:02:54.213Z,4.97
2019-01-30T07:05:23.218Z,5.67
2019-01-30T07:07:52.298Z,5.03
2019-01-30T07:10:22.994Z,3.97
2019-01-30T07:12:52.162Z,3.80
2019-01-30T07:15:21.187Z,4.97
2019-01-30T07:17:50.137Z,4.17
2019-01-30T07:20:19.275Z,5.20
2019-01-30T07:22:48.369Z,4.43
2019-01-30T07:25:18.491Z,5.00
2019-01-30T07:27:47.637Z,4.63
2019-01-30T07:30:21.804Z,4.50
2019-01-30T07:32:50.698Z,4.53
2019-01-30T07:35:19.694Z,4.07
2019-01-30T07:37:48.611Z,5.33
2019-01-30T07:40:17.865Z,5.47
2019-01-30T07:42:46.734Z,5.17
2019-01-30T07:45:17.230Z,5.10
2019-01-30T07:47:46.339Z,3.17
2019-01-30T07:50:15.659Z,4.23
2019-01-30T07:52:44.571Z,4.40
2019-01-30T07:55:15.276Z,4.03
2019-01-30T07:57:44.597Z,4.70
2019-01-30T08:00:19.233Z,4.93
2019-01-30T08:02:53.286Z,3.57
2019-01-30T08:05:19.204Z,4.67
2019-01-30T08:07:48.233Z,4.33
2019-01-30T08:10:17.450Z,4.13
2019-01-30T08:12:46.459Z,4.13
2019-01-30T08:15:16.570Z,4.20
2019-01-30T08:17:45.574Z,3.70
2019-01-30T08:20:17.015Z,6.13
2019-01-30T08:22:46.306Z,3.93
2019-01-30T08:25:17.459Z,4.30
2019-01-30T08:27:47.222Z,4.87
2019-01-30T08:30:22.979Z,5.73
2019-01-30T08:33:02.952Z,4.77
2019-01-30T08:35:24.098Z,3.70
2019-01-30T08:37:53.523Z,5.20
2019-01-30T08:40:22.488Z,4.80
2019-01-30T08:42:52.483Z,4.90
2019-01-30T08:45:26.770Z,4.27
2019-01-30T08:47:55.892Z,5.20
2019-01-30T08:50:25.590Z,4.83
2019-01-30T08:52:54.572Z,5.40
2019-01-30T08:55:23.558Z,6.67
2019-01-30T08:57:52.740Z,5.70
2019-01-30T09:00:22.776Z,4.43
2019-01-30T09:02:51.762Z,5.47
2019-01-30T09:05:20.809Z,4.53
2019-01-30T09:07:49.823Z,6.53
2019-01-30T09:10:20.431Z,5.40
2019-01-30T09:12:49.569Z,5.30
2019-01-30T09:15:19.998Z,4.47
2019-01-30T09:17:49.191Z,6.23
2019-01-30T09:20:22.128Z,5.20
2019-01-30T09:22:51.171Z,6.00
2019-01-30T09:25:22.416Z,4.97
2019-01-30T09:27:52.089Z,3.97
2019-01-30T09:30:23.743Z,6.20
2019-01-30T09:32:55.537Z,6.00
2019-01-30T09:35:25.046Z,6.33
2019-01-30T09:37:54.346Z,3.07
2019-01-30T09:40:24.156Z,4.47
2019-01-30T09:42:53.410Z,6.93
2019-01-30T09:45:23.138Z,4.73
2019-01-30T09:47:52.109Z,4.90
2019-01-30T09:50:21.238Z,5.63
2019-01-30T09:52:50.780Z,5.73
2019-01-30T09:55:19.921Z,4.97
2019-01-30T09:57:49.119Z,4.63
2019-01-30T10:00:24.013Z,6.33
2019-01-30T10:02:53.287Z,6.13
2019-01-30T10:05:22.269Z,5.03
2019-01-30T10:07:51.299Z,5.37
2019-01-30T10:10:22.663Z,4.23
2019-01-30T10:12:51.681Z,5.10
2019-01-30T10:15:24.250Z,5.50
2019-01-30T10:17:53.315Z,5.13
2019-01-30T10:20:24.058Z,5.23
2019-01-30T10:22:54.231Z,5.37
2019-01-30T10:25:23.482Z,5.83
2019-01-30T10:27:52.710Z,4.90
2019-01-30T10:30:24.743Z,5.90
2019-01-30T10:32:56.022Z,5.20
2019-01-30T10:35:26.954Z,4.73
2019-01-30T10:37:55.979Z,5.20
2019-01-30T10:40:25.043Z,5.03
2019-01-30T10:42:57.300Z,4.70
2019-01-30T10:45:25.653Z,5.43
2019-01-30T10:47:54.610Z,5.27
2019-01-30T10:50:25.426Z,5.13
2019-01-30T10:52:54.884Z,5.00
2019-01-30T10:55:25.864Z,4.87
2019-01-30T10:57:56.714Z,5.00
2019-01-30T11:00:28.725Z,4.80
2019-01-30T11:02:57.853Z,5.20
2019-01-30T11:05:26.879Z,4.67
2019-01-30T11:07:56.030Z,5.40
2019-01-30T11:10:25.026Z,5.27
2019-01-30T11:12:54.091Z,5.13
2019-01-30T11:15:24.703Z,4.90
2019-01-30T11:17:53.642Z,5.10
2019-01-30T11:20:22.701Z,4.43
2019-01-30T11:22:53.662Z,4.07
2019-01-30T11:25:25.366Z,4.07
2019-01-30T11:27:54.266Z,4.50
2019-01-30T11:30:23.457Z,4.60
2019-01-30T11:32:52.515Z,4.73
2019-01-30T11:35:21.443Z,4.60
2019-01-30T11:37:50.490Z,4.97
2019-01-30T11:40:20.391Z,4.97
2019-01-30T11:42:49.597Z,4.47
2019-01-30T11:45:24.609Z,4.23
2019-01-30T11:47:53.546Z,4.83
2019-01-30T11:50:25.501Z,5.13
2019-01-30T11:52:54.514Z,4.43
2019-01-30T11:55:23.446Z,4.67
2019-01-30T11:57:52.476Z,4.73
2019-01-30T12:00:32.704Z,4.73
2019-01-30T12:03:01.669Z,5.33
2019-01-30T12:05:30.684Z,5.07
2019-01-30T12:07:59.722Z,5.87
2019-01-30T12:10:29.430Z,4.67
2019-01-30T12:12:58.309Z,4.90
2019-01-30T12:15:28.413Z,5.33
2019-01-30T12:17:57.365Z,4.87
2019-01-30T12:20:26.235Z,4.80
2019-01-30T12:22:55.183Z,4.40
2019-01-30T12:25:24.230Z,4.80
2019-01-30T12:27:53.466Z,4.13
2019-01-30T12:30:24.234Z,4.37
2019-01-30T12:32:53.378Z,4.27
2019-01-30T12:35:22.502Z,4.33
2019-01-30T12:37:51.602Z,4.80
2019-01-30T12:40:21.304Z,5.80
2019-01-30T12:42:50.664Z,4.87
2019-01-30T12:45:31.321Z,4.67
2019-01-30T12:48:01.277Z,4.40
2019-01-30T12:50:30.530Z,4.47
2019-01-30T12:52:59.577Z,3.77
2019-01-30T12:55:29.739Z,4.50
2019-01-30T12:57:58.946Z,4.20
2019-01-30T13:00:30.393Z,4.50
2019-01-30T13:02:59.646Z,4.30
2019-01-30T13:05:28.854Z,4.37
2019-01-30T13:07:57.911Z,4.67
2019-01-30T13:10:26.873Z,4.60
2019-01-30T13:12:56.609Z,4.23
2019-01-30T13:15:26.733Z,3.77
2019-01-30T13:17:56.209Z,3.80
2019-01-30T13:20:25.486Z,5.43
2019-01-30T13:22:55.352Z,4.20
2019-01-30T13:25:30.074Z,4.30
2019-01-30T13:27:59.285Z,4.10
2019-01-30T13:30:33.424Z,4.80
2019-01-30T13:33:02.723Z,4.13
2019-01-30T13:35:35.796Z,4.97
2019-01-30T13:38:05.177Z,4.00
2019-01-30T13:40:36.259Z,4.43
2019-01-30T13:43:06.336Z,4.57
2019-01-30T13:45:37.282Z,3.43
2019-01-30T13:48:12.736Z,3.33
2019-01-30T13:50:41.894Z,4.03
2019-01-30T13:53:11.017Z,4.80
2019-01-30T13:55:43.360Z,4.90
2019-01-30T13:58:12.434Z,3.07
2019-01-30T14:00:42.928Z,3.23
2019-01-30T14:03:12.017Z,4.40
2019-01-30T14:05:41.008Z,3.87
2019-01-30T14:08:12.457Z,4.17
2019-01-30T14:10:41.518Z,4.30
2019-01-30T14:13:10.514Z,4.43
2019-01-30T14:15:40.003Z,3.73
2019-01-30T14:18:09.071Z,4.03
2019-01-30T14:20:38.166Z,4.37
2019-01-30T14:23:12.693Z,3.97
2019-01-30T14:25:42.126Z,3.90
2019-01-30T14:28:11.952Z,4.50
2019-01-30T14:30:41.877Z,4.07
2019-01-30T14:33:11.470Z,4.17
2019-01-30T14:35:44.644Z,3.87
2019-01-30T14:38:13.850Z,4.47
2019-01-30T14:40:42.974Z,4.37
2019-01-30T14:43:13.323Z,4.30
2019-01-30T14:45:42.523Z,4.67
2019-01-30T14:48:12.846Z,4.37
2019-01-30T14:50:41.982Z,3.97
2019-01-30T14:53:11.239Z,4.17
2019-01-30T14:55:40.262Z,3.83
2019-01-30T14:58:10.115Z,4.00
2019-01-30T15:00:39.285Z,4.03
2019-01-30T15:03:09.707Z,3.60
2019-01-30T15:05:38.782Z,3.63
2019-01-30T15:08:08.057Z,3.63
2019-01-30T15:10:37.143Z,4.77
2019-01-30T15:13:08.020Z,3.73
2019-01-30T15:15:37.042Z,3.67
2019-01-30T15:18:07.079Z,4.27
2019-01-30T15:20:36.838Z,4.07
2019-01-30T15:23:06.946Z,3.70
2019-01-30T15:25:35.942Z,3.57
2019-01-30T15:28:06.881Z,4.03
2019-01-30T15:30:42.369Z,4.00
2019-01-30T15:33:13.243Z,4.33
2019-01-30T15:35:42.638Z,3.03
2019-01-30T15:38:14.614Z,5.17
2019-01-30T15:40:43.609Z,3.63
2019-01-30T15:43:12.658Z,3.77
2019-01-30T15:45:41.825Z,4.97
2019-01-30T15:48:10.873Z,3.97
2019-01-30T15:50:40.887Z,4.43
2019-01-30T15:53:12.490Z,4.33
2019-01-30T15:55:41.613Z,4.80
2019-01-30T15:58:11.807Z,3.93
2019-01-30T16:00:43.882Z,4.60
2019-01-30T16:03:13.036Z,4.80
2019-01-30T16:05:44.986Z,4.30
2019-01-30T16:08:13.083Z,3.67
2019-01-30T16:10:42.445Z,3.53
2019-01-30T16:13:11.674Z,4.60
2019-01-30T16:15:44.219Z,5.07
2019-01-30T16:18:13.391Z,4.20
2019-01-30T16:20:42.403Z,4.50
2019-01-30T16:23:11.479Z,4.60
2019-01-30T16:25:40.803Z,4.43
2019-01-30T16:28:09.913Z,4.57
2019-01-30T16:30:38.876Z,4.63
2019-01-30T16:33:08.219Z,4.57
2019-01-30T16:35:37.285Z,4.03
2019-01-30T16:38:06.473Z,4.77
2019-01-30T16:40:35.619Z,4.80
2019-01-30T16:43:05.616Z,3.57
2019-01-30T16:45:34.842Z,5.83
2019-01-30T16:48:04.145Z,5.13
2019-01-30T16:50:34.394Z,4.37
2019-01-30T16:53:04.183Z,6.03
2019-01-30T16:55:33.604Z,5.47
2019-01-30T16:58:02.896Z,5.80
2019-01-30T17:00:32.977Z,5.10
2019-01-30T17:03:02.426Z,5.63
2019-01-30T17:05:32.105Z,6.57
2019-01-30T17:08:01.481Z,4.80
2019-01-30T17:10:32.066Z,6.43
2019-01-30T17:13:01.846Z,5.97
2019-01-30T17:15:32.466Z,5.47
2019-01-30T17:18:01.650Z,5.30
2019-01-30T17:20:33.018Z,6.10
2019-01-30T17:23:02.229Z,5.33
2019-01-30T17:25:31.487Z,5.73
2019-01-30T17:28:00.711Z,7.23
2019-01-30T17:30:45.269Z,6.00
2019-01-30T17:33:14.325Z,5.10
2019-01-30T17:35:43.774Z,4.27
2019-01-30T17:38:13.109Z,5.53
2019-01-30T17:40:43.277Z,6.53
2019-01-30T17:43:12.465Z,5.67
2019-01-30T17:45:41.806Z,5.83
2019-01-30T17:48:12.200Z,4.90
2019-01-30T17:50:41.820Z,6.83
2019-01-30T17:53:10.762Z,5.97
2019-01-30T17:55:39.922Z,5.80
2019-01-30T17:58:10.670Z,6.03
2019-01-30T18:01:06.350Z,6.73
2019-01-30T18:03:35.963Z,5.50
2019-01-30T18:06:05.278Z,6.27
2019-01-30T18:08:34.585Z,6.37
2019-01-30T18:11:04.029Z,5.43
2019-01-30T18:13:33.501Z,7.07
2019-01-30T18:16:02.930Z,7.50
2019-01-30T18:18:32.251Z,7.17
2019-01-30T18:21:01.303Z,7.97
2019-01-30T18:23:30.686Z,6.77
2019-01-30T18:26:01.326Z,5.97
2019-01-30T18:28:30.605Z,6.80
2019-01-30T18:30:59.557Z,6.73
2019-01-30T18:33:28.910Z,6.47
2019-01-30T18:35:58.619Z,5.30
2019-01-30T18:38:28.275Z,7.37
2019-01-30T18:40:57.659Z,6.77
2019-01-30T18:43:26.751Z,6.97
2019-01-30T18:45:55.978Z,8.27
2019-01-30T18:48:25.346Z,6.20
2019-01-30T18:50:56.786Z,6.87
2019-01-30T18:53:25.391Z,6.40
2019-01-30T18:55:54.461Z,7.23
2019-01-30T18:58:23.495Z,5.70
2019-01-30T19:00:52.654Z,6.13
2019-01-30T19:03:21.636Z,6.20
2019-01-30T19:05:50.880Z,5.80
2019-01-30T19:08:19.985Z,5.70
2019-01-30T19:10:48.934Z,5.77
2019-01-30T19:13:18.212Z,6.50
2019-01-30T19:15:47.198Z,6.00
2019-01-30T19:18:16.766Z,4.57
2019-01-30T19:20:48.147Z,5.77
2019-01-30T19:23:17.214Z,5.93
2019-01-30T19:25:46.332Z,5.90
2019-01-30T19:28:16.297Z,6.13
2019-01-30T19:30:45.877Z,4.70
2019-01-30T19:33:14.870Z,6.27
2019-01-30T19:35:44.298Z,6.33
2019-01-30T19:38:13.270Z,6.27
2019-01-30T19:40:43.690Z,6.20
2019-01-30T19:43:15.490Z,6.27
2019-01-30T19:45:47.605Z,6.90
2019-01-30T19:48:16.603Z,5.07
2019-01-30T19:50:47.833Z,6.53
2019-01-30T19:53:16.678Z,5.37
2019-01-30T19:55:47.784Z,6.17
2019-01-30T19:58:16.633Z,7.43
2019-01-30T20:00:48.569Z,6.70
2019-01-30T20:03:33.606Z,5.83
2019-01-30T20:06:03.349Z,6.43
2019-01-30T20:08:33.086Z,6.40
2019-01-30T20:11:02.062Z,5.27
2019-01-30T20:13:30.962Z,5.73
2019-01-30T20:16:00.242Z,5.40
2019-01-30T20:18:29.430Z,6.07
2019-01-30T20:20:58.436Z,5.43
2019-01-30T20:23:27.429Z,6.63
2019-01-30T20:25:56.611Z,5.20
2019-01-30T20:28:25.708Z,5.77
2019-01-30T20:30:55.282Z,6.83
2019-01-30T20:33:24.319Z,6.47
2019-01-30T20:35:53.253Z,6.37
2019-01-30T20:38:23.925Z,6.47
2019-01-30T20:40:53.371Z,5.80
2019-01-30T20:43:22.648Z,5.73
2019-01-30T20:45:51.826Z,6.90
2019-01-30T20:48:20.878Z,6.07
2019-01-30T20:50:49.860Z,6.37
2019-01-30T20:53:22.475Z,6.70
2019-01-30T20:55:51.470Z,6.33
2019-01-30T20:58:21.628Z,6.53
2019-01-30T21:00:50.682Z,6.47
2019-01-30T21:03:19.528Z,7.17
2019-01-30T21:05:50.107Z,7.10
2019-01-30T21:08:20.342Z,5.83
2019-01-30T21:10:49.759Z,6.63
2019-01-30T21:13:18.990Z,6.13
2019-01-30T21:15:48.566Z,7.20
2019-01-30T21:18:18.924Z,6.90
2019-01-30T21:20:48.431Z,7.47
2019-01-30T21:23:17.579Z,6.63
2019-01-30T21:25:49.854Z,6.67
2019-01-30T21:28:18.721Z,6.70
2019-01-30T21:30:48.636Z,6.60
2019-01-30T21:33:18.235Z,6.77
2019-01-30T21:35:47.396Z,7.50
2019-01-30T21:38:18.449Z,7.27
2019-01-30T21:40:47.664Z,7.57
2019-01-30T21:43:17.537Z,7.60
2019-01-30T21:45:57.865Z,7.70
2019-01-30T21:48:29.774Z,6.63
2019-01-30T21:51:02.220Z,6.63
2019-01-30T21:53:33.087Z,7.50
2019-01-30T21:56:02.020Z,7.13
2019-01-30T21:58:31.079Z,7.67
2019-01-30T22:01:00.240Z,7.43
2019-01-30T22:03:29.342Z,7.50
2019-01-30T22:05:59.169Z,8.83
2019-01-30T22:08:28.306Z,7.73
2019-01-30T22:10:57.340Z,9.87
2019-01-30T22:13:26.739Z,7.40
2019-01-30T22:15:57.159Z,9.63
2019-01-30T22:18:29.135Z,8.50
2019-01-30T22:20:58.134Z,8.50
2019-01-30T22:23:27.340Z,8.13
2019-01-30T22:25:57.257Z,10.37
2019-01-30T22:28:26.371Z,7.63
2019-01-30T22:30:55.658Z,8.27
2019-01-30T22:33:24.593Z,8.83
2019-01-30T22:35:53.669Z,7.80
2019-01-30T22:38:22.631Z,8.67
2019-01-30T22:40:51.680Z,8.97
2019-01-30T22:43:20.698Z,9.20
2019-01-30T22:45:50.626Z,8.83
2019-01-30T22:48:22.258Z,9.30
2019-01-30T22:50:51.265Z,9.17
2019-01-30T22:53:20.238Z,10.10
2019-01-30T22:55:49.203Z,10.73
2019-01-30T22:58:18.135Z,10.13
2019-01-30T23:01:28.040Z,9.33
2019-01-30T23:04:35.135Z,10.80
2019-01-30T23:07:15.346Z,10.83
2019-01-30T23:10:29.770Z,9.87
2019-01-30T23:13:31.737Z,9.63
2019-01-30T23:16:18.347Z,8.40
2019-01-30T23:18:59.279Z,9.27
2019-01-30T23:21:37.782Z,9.73
2019-01-30T23:25:02.084Z,10.37
2019-01-30T23:27:52.496Z,10.77
2019-01-30T23:30:59.683Z,9.43
2019-01-30T23:33:54.605Z,10.60
2019-01-30T23:36:31.123Z,9.53
2019-01-30T23:39:17.533Z,11.83
2019-01-30T23:42:07.864Z,9.50
2019-01-30T23:45:17.194Z,9.97
2019-01-30T23:48:28.151Z,9.73
2019-01-30T23:51:36.774Z,8.53
2019-01-30T23:54:34.066Z,11.50
2019-01-30T23:57:24.998Z,10.73
